createdAt,value
2023-03-23T15:58:21.011Z,41.72
2023-03-23T16:00:49.218Z,41.66
2023-03-23T16:03:25.473Z,42.12
2023-03-23T16:05:52.400Z,42.31
2023-03-23T16:08:19.168Z,42.54
2023-03-23T16:10:46.180Z,42.83
2023-03-23T16:13:12.925Z,43.04
2023-03-23T16:15:39.768Z,43.79
2023-03-23T16:18:06.703Z,44.25
2023-03-23T16:20:33.600Z,44.59
2023-03-23T16:23:01.258Z,44.33
2023-03-23T16:25:27.990Z,44.96
2023-03-23T16:27:54.724Z,45.35
2023-03-23T16:30:26.444Z,45.62
2023-03-23T16:32:55.493Z,45.79
2023-03-23T16:35:24.073Z,46.04
2023-03-23T16:38:08.309Z,46.36
2023-03-23T16:40:39.015Z,46.88
2023-03-23T16:43:08.763Z,47.89
2023-03-23T16:45:37.997Z,47.98
2023-03-23T16:48:06.226Z,49.13
2023-03-23T16:50:33.734Z,49.92
2023-03-23T16:53:00.820Z,50.27
2023-03-23T16:55:28.078Z,50.91
2023-03-23T16:58:05.361Z,51.76
2023-03-23T17:00:40.821Z,52.22
2023-03-23T17:03:08.147Z,52.74
2023-03-23T17:05:36.749Z,53.05
2023-03-23T17:08:04.121Z,53.59
2023-03-23T17:10:34.533Z,54.42
2023-03-23T17:13:01.883Z,54.92
2023-03-23T17:15:42.120Z,54.99
2023-03-23T17:18:09.983Z,55.29
2023-03-23T17:20:37.020Z,55.94
2023-03-23T17:23:04.586Z,56.14
2023-03-23T17:25:32.109Z,56.71
2023-03-23T17:28:05.925Z,57.32
2023-03-23T17:30:34.490Z,57.72
2023-03-23T17:33:01.209Z,58.12
2023-03-23T17:35:27.967Z,58.57
2023-03-23T17:37:54.633Z,59.43
2023-03-23T17:40:21.481Z,59.78
2023-03-23T17:42:51.347Z,59.53
2023-03-23T17:45:18.255Z,59.55
2023-03-23T17:47:44.998Z,59.48
2023-03-23T17:50:14.819Z,59.80
2023-03-23T17:52:43.433Z,60.23
2023-03-23T17:55:10.638Z,60.72
2023-03-23T17:57:37.317Z,60.73
2023-03-23T18:00:07.992Z,61.07
2023-03-23T18:02:38.419Z,61.95
2023-03-23T18:05:06.626Z,62.75
2023-03-23T18:07:33.338Z,63.98
2023-03-23T18:10:00.784Z,64.78
2023-03-23T18:12:27.660Z,65.29
2023-03-23T18:14:58.402Z,65.69
2023-03-23T18:17:25.896Z,65.57
2023-03-23T18:19:52.641Z,66.01
2023-03-23T18:22:19.489Z,66.79
2023-03-23T18:24:46.810Z,66.30
2023-03-23T18:27:13.669Z,66.86
2023-03-23T18:29:40.451Z,66.84
2023-03-23T18:32:08.219Z,67.63
2023-03-23T18:34:36.445Z,68.20
2023-03-23T18:37:03.992Z,69.25
2023-03-23T18:39:34.078Z,70.05
2023-03-23T18:42:01.430Z,70.33
2023-03-23T18:44:28.251Z,70.54
2023-03-23T18:46:54.954Z,71.20
2023-03-23T18:49:21.909Z,72.32
2023-03-23T18:51:50.876Z,72.88
2023-03-23T18:54:17.855Z,73.78
2023-03-23T18:56:44.746Z,74.85
2023-03-23T18:59:11.575Z,75.60
2023-03-23T19:01:39.162Z,76.43
2023-03-23T19:04:06.812Z,76.81
2023-03-23T19:06:35.226Z,76.93
2023-03-23T19:09:02.356Z,77.26
2023-03-23T19:11:29.373Z,78.67
2023-03-23T19:14:02.065Z,79.46
2023-03-23T19:16:31.282Z,80.50
2023-03-23T19:18:58.226Z,81.37
2023-03-23T19:21:25.890Z,82.31
2023-03-23T19:23:54.799Z,83.92
2023-03-23T19:26:36.157Z,83.86
2023-03-23T19:29:26.083Z,85.20
2023-03-23T19:31:55.111Z,85.84
2023-03-23T19:34:22.231Z,86.70
2023-03-23T19:36:55.192Z,87.05
2023-03-23T19:39:30.400Z,87.46
2023-03-23T19:41:57.160Z,87.70
2023-03-23T19:44:23.981Z,88.98
2023-03-23T19:46:50.790Z,89.83
2023-03-23T19:49:17.880Z,90.69
2023-03-23T19:51:45.036Z,91.31
2023-03-23T19:54:13.288Z,91.92
2023-03-23T19:56:40.470Z,92.45
2023-03-23T19:59:10.611Z,92.65
2023-03-23T20:01:37.787Z,93.06
2023-03-23T20:04:05.555Z,93.12
2023-03-23T20:06:33.632Z,93.90
2023-03-23T20:09:01.261Z,93.91
2023-03-23T20:11:28.676Z,94.48
2023-03-23T20:13:55.553Z,94.42
2023-03-23T20:16:22.890Z,94.20
2023-03-23T20:18:50.204Z,93.81
2023-03-23T20:21:20.430Z,93.36
2023-03-23T20:23:47.970Z,93.68
2023-03-23T20:26:24.479Z,93.56
2023-03-23T20:28:52.311Z,94.20
2023-03-23T20:31:24.294Z,94.43
2023-03-23T20:34:00.228Z,95.08
2023-03-23T20:36:36.863Z,95.15
2023-03-23T20:39:10.853Z,95.18
2023-03-23T20:41:41.617Z,95.10
2023-03-23T20:44:14.151Z,93.89
2023-03-23T20:46:48.610Z,93.61
2023-03-23T20:49:16.420Z,93.44
2023-03-23T20:51:43.760Z,93.49
2023-03-23T20:54:14.061Z,92.96
2023-03-23T20:56:42.537Z,91.67
2023-03-23T20:59:09.966Z,89.87
2023-03-23T21:01:37.106Z,88.83
2023-03-23T21:04:03.832Z,88.24
2023-03-23T21:06:31.223Z,87.76
2023-03-23T21:08:58.268Z,87.72
2023-03-23T21:11:26.767Z,87.42
2023-03-23T21:13:55.083Z,88.40
2023-03-23T21:16:24.361Z,89.06
2023-03-23T21:18:51.287Z,89.42
2023-03-23T21:21:18.572Z,88.99
2023-03-23T21:23:52.997Z,87.40
2023-03-23T21:26:22.756Z,86.94
2023-03-23T21:28:51.069Z,86.92
2023-03-23T21:31:18.345Z,86.72
2023-03-23T21:33:45.152Z,86.57
2023-03-23T21:36:11.969Z,86.01
2023-03-23T21:38:41.891Z,86.10
2023-03-23T21:41:11.464Z,86.38
2023-03-23T21:43:39.764Z,86.65
2023-03-23T21:46:09.060Z,86.23
2023-03-23T21:48:38.820Z,86.52
2023-03-23T21:51:11.993Z,86.31
2023-03-23T21:53:39.150Z,86.87
2023-03-23T21:56:07.374Z,86.58
2023-03-23T21:58:34.253Z,86.94
2023-03-23T22:01:02.179Z,87.25
2023-03-23T22:03:33.016Z,87.19
2023-03-23T22:06:06.774Z,87.42
2023-03-23T22:08:33.734Z,87.10
2023-03-23T22:11:02.443Z,86.95
2023-03-23T22:13:31.263Z,87.01
2023-03-23T22:15:59.379Z,87.23
2023-03-23T22:18:26.128Z,86.79
2023-03-23T22:20:53.331Z,86.71
2023-03-23T22:23:20.282Z,86.82
2023-03-23T22:25:47.393Z,86.20
2023-03-23T22:28:14.131Z,86.47
2023-03-23T22:30:40.826Z,86.70
2023-03-23T22:33:08.170Z,86.59
2023-03-23T22:35:35.060Z,86.64
2023-03-23T22:38:03.238Z,86.62
2023-03-23T22:40:33.085Z,86.33
2023-03-23T22:42:59.872Z,86.22
2023-03-23T22:45:27.903Z,86.24
2023-03-23T22:47:54.817Z,86.24
2023-03-23T22:50:24.292Z,85.97
2023-03-23T22:52:51.313Z,86.50
2023-03-23T22:55:18.134Z,86.38
2023-03-23T22:57:44.939Z,85.99
2023-03-23T23:00:14.950Z,86.11
2023-03-23T23:02:43.005Z,86.17
2023-03-23T23:05:10.911Z,86.03
2023-03-23T23:07:38.011Z,85.62
2023-03-23T23:10:05.412Z,85.91
2023-03-23T23:12:35.260Z,86.10
2023-03-23T23:15:07.115Z,86.15
2023-03-23T23:17:34.860Z,86.07
2023-03-23T23:20:05.805Z,85.72
2023-03-23T23:22:33.793Z,85.35
2023-03-23T23:25:00.803Z,85.24
2023-03-23T23:27:27.639Z,85.08
2023-03-23T23:29:54.411Z,85.16
2023-03-23T23:32:21.461Z,85.42
2023-03-23T23:34:48.560Z,85.01
2023-03-23T23:37:15.570Z,84.72
2023-03-23T23:39:42.652Z,84.69
2023-03-23T23:42:09.813Z,84.85
2023-03-23T23:44:36.864Z,84.41
2023-03-23T23:47:04.100Z,84.69
2023-03-23T23:49:32.795Z,84.61
2023-03-23T23:51:59.547Z,84.32
2023-03-23T23:54:30.404Z,84.43
2023-03-23T23:56:58.967Z,84.73
2023-03-23T23:59:26.512Z,84.56
